sensor_id;sensor_type;location;lat;lon;timestamp;temperature;humidity
40291;DHT22;26000;48.304;13.626;2023-04-07T00:00:26;2.90;99.90
40291;DHT22;26000;48.304;13.626;2023-04-07T00:02:52;2.70;99.90
40291;DHT22;26000;48.304;13.626;2023-04-07T00:05:18;2.70;99.90
40291;DHT22;26000;48.304;13.626;2023-04-07T00:07:43;2.60;99.90
40291;DHT22;26000;48.304;13.626;2023-04-07T00:10:09;2.70;99.90
40291;DHT22;26000;48.304;13.626;2023-04-07T00:12:35;2.60;99.90
40291;DHT22;26000;48.304;13.626;2023-04-07T00:15:01;2.70;99.90
40291;DHT22;26000;48.304;13.626;2023-04-07T00:17:26;2.60;99.90
40291;DHT22;26000;48.304;13.626;2023-04-07T00:19:52;2.50;99.90
40291;DHT22;26000;48.304;13.626;2023-04-07T00:22:18;2.60;99.90
40291;DHT22;26000;48.304;13.626;2023-04-07T00:24:43;2.50;99.90
40291;DHT22;26000;48.304;13.626;2023-04-07T00:27:10;2.60;99.90
40291;DHT22;26000;48.304;13.626;2023-04-07T00:29:35;2.70;99.90
40291;DHT22;26000;48.304;13.626;2023-04-07T00:32:01;2.80;99.90
40291;DHT22;26000;48.304;13.626;2023-04-07T00:34:26;2.80;99.90
40291;DHT22;26000;48.304;13.626;2023-04-07T00:36:52;2.70;99.90
40291;DHT22;26000;48.304;13.626;2023-04-07T00:39:18;2.80;99.90
40291;DHT22;26000;48.304;13.626;2023-04-07T00:41:44;2.70;99.90
40291;DHT22;26000;48.304;13.626;2023-04-07T00:44:10;2.70;99.90
40291;DHT22;26000;48.304;13.626;2023-04-07T00:46:36;2.80;99.90
40291;DHT22;26000;48.304;13.626;2023-04-07T00:49:02;2.50;99.90
40291;DHT22;26000;48.304;13.626;2023-04-07T00:51:28;2.60;99.90
40291;DHT22;26000;48.304;13.626;2023-04-07T00:53:54;2.60;99.90
40291;DHT22;26000;48.304;13.626;2023-04-07T00:56:20;2.50;99.90
40291;DHT22;26000;48.304;13.626;2023-04-07T00:58:45;2.60;99.90
40291;DHT22;26000;48.304;13.626;2023-04-07T01:01:34;2.50;99.90
40291;DHT22;26000;48.304;13.626;2023-04-07T01:04:04;2.50;99.90
40291;DHT22;26000;48.304;13.626;2023-04-07T01:06:35;2.40;99.90
40291;DHT22;26000;48.304;13.626;2023-04-07T01:09:04;2.40;99.90
40291;DHT22;26000;48.304;13.626;2023-04-07T01:14:19;2.30;99.90
40291;DHT22;26000;48.304;13.626;2023-04-07T01:16:48;2.30;99.90
40291;DHT22;26000;48.304;13.626;2023-04-07T01:21:55;2.20;99.90
40291;DHT22;26000;48.304;13.626;2023-04-07T01:24:41;2.10;99.90
40291;DHT22;26000;48.304;13.626;2023-04-07T01:30:14;2.20;99.90
40291;DHT22;26000;48.304;13.626;2023-04-07T01:32:42;2.10;99.90
40291;DHT22;26000;48.304;13.626;2023-04-07T01:35:12;2.20;99.90
40291;DHT22;26000;48.304;13.626;2023-04-07T01:37:38;2.30;99.90
40291;DHT22;26000;48.304;13.626;2023-04-07T01:40:07;2.10;99.90
40291;DHT22;26000;48.304;13.626;2023-04-07T01:42:33;2.10;99.90
40291;DHT22;26000;48.304;13.626;2023-04-07T01:45:01;2.10;99.90
40291;DHT22;26000;48.304;13.626;2023-04-07T01:47:28;2.10;99.90
40291;DHT22;26000;48.304;13.626;2023-04-07T01:50:00;2.00;99.90
40291;DHT22;26000;48.304;13.626;2023-04-07T01:52:29;2.00;99.90
40291;DHT22;26000;48.304;13.626;2023-04-07T01:54:55;2.00;99.90
40291;DHT22;26000;48.304;13.626;2023-04-07T01:57:22;2.00;99.90
40291;DHT22;26000;48.304;13.626;2023-04-07T01:59:47;2.00;99.90
40291;DHT22;26000;48.304;13.626;2023-04-07T02:02:13;2.10;99.90
40291;DHT22;26000;48.304;13.626;2023-04-07T02:04:51;1.90;99.90
40291;DHT22;26000;48.304;13.626;2023-04-07T02:07:49;2.00;99.90
40291;DHT22;26000;48.304;13.626;2023-04-07T02:10:21;1.90;99.90
40291;DHT22;26000;48.304;13.626;2023-04-07T02:12:48;1.80;99.90
40291;DHT22;26000;48.304;13.626;2023-04-07T02:15:14;1.80;99.90
40291;DHT22;26000;48.304;13.626;2023-04-07T02:17:42;1.90;99.90
40291;DHT22;26000;48.304;13.626;2023-04-07T02:20:10;2.00;99.90
40291;DHT22;26000;48.304;13.626;2023-04-07T02:22:38;1.90;99.90
40291;DHT22;26000;48.304;13.626;2023-04-07T02:25:39;1.90;99.90
40291;DHT22;26000;48.304;13.626;2023-04-07T02:28:05;1.70;99.90
40291;DHT22;26000;48.304;13.626;2023-04-07T02:30:31;1.70;99.90
40291;DHT22;26000;48.304;13.626;2023-04-07T02:32:57;1.70;99.90
40291;DHT22;26000;48.304;13.626;2023-04-07T02:35:23;1.70;99.90
40291;DHT22;26000;48.304;13.626;2023-04-07T02:37:49;1.60;99.90
40291;DHT22;26000;48.304;13.626;2023-04-07T02:40:15;1.60;99.90
40291;DHT22;26000;48.304;13.626;2023-04-07T02:42:41;1.60;99.90
40291;DHT22;26000;48.304;13.626;2023-04-07T02:45:08;1.70;99.90
40291;DHT22;26000;48.304;13.626;2023-04-07T02:47:35;1.70;99.90
40291;DHT22;26000;48.304;13.626;2023-04-07T02:50:01;1.70;99.90
40291;DHT22;26000;48.304;13.626;2023-04-07T02:52:26;1.70;99.90
40291;DHT22;26000;48.304;13.626;2023-04-07T02:54:52;1.60;99.90
40291;DHT22;26000;48.304;13.626;2023-04-07T02:57:18;1.70;99.90
40291;DHT22;26000;48.304;13.626;2023-04-07T02:59:43;1.70;99.90
40291;DHT22;26000;48.304;13.626;2023-04-07T03:02:09;1.60;99.90
40291;DHT22;26000;48.304;13.626;2023-04-07T03:04:35;1.50;99.90
40291;DHT22;26000;48.304;13.626;2023-04-07T03:07:01;1.40;99.90
40291;DHT22;26000;48.304;13.626;2023-04-07T03:09:26;1.40;99.90
40291;DHT22;26000;48.304;13.626;2023-04-07T03:11:52;1.30;99.90
40291;DHT22;26000;48.304;13.626;2023-04-07T03:14:18;1.40;99.90
40291;DHT22;26000;48.304;13.626;2023-04-07T03:16:43;1.40;99.90
40291;DHT22;26000;48.304;13.626;2023-04-07T03:19:09;1.50;99.90
40291;DHT22;26000;48.304;13.626;2023-04-07T03:21:36;1.40;99.90
40291;DHT22;26000;48.304;13.626;2023-04-07T03:24:03;1.50;99.90
40291;DHT22;26000;48.304;13.626;2023-04-07T03:26:28;1.60;99.90
40291;DHT22;26000;48.304;13.626;2023-04-07T03:28:54;1.50;99.90
40291;DHT22;26000;48.304;13.626;2023-04-07T03:31:20;1.40;99.90
40291;DHT22;26000;48.304;13.626;2023-04-07T03:33:45;1.40;99.90
40291;DHT22;26000;48.304;13.626;2023-04-07T03:36:11;1.50;99.90
40291;DHT22;26000;48.304;13.626;2023-04-07T03:38:38;1.30;99.90
40291;DHT22;26000;48.304;13.626;2023-04-07T03:41:03;1.20;99.90
40291;DHT22;26000;48.304;13.626;2023-04-07T03:43:29;1.20;99.90
40291;DHT22;26000;48.304;13.626;2023-04-07T03:45:55;1.30;99.90
40291;DHT22;26000;48.304;13.626;2023-04-07T03:48:21;1.20;99.90
40291;DHT22;26000;48.304;13.626;2023-04-07T03:50:46;1.20;99.90
40291;DHT22;26000;48.304;13.626;2023-04-07T03:53:12;1.20;99.90
40291;DHT22;26000;48.304;13.626;2023-04-07T03:55:41;1.10;99.90
40291;DHT22;26000;48.304;13.626;2023-04-07T03:58:07;1.10;99.90
40291;DHT22;26000;48.304;13.626;2023-04-07T04:00:33;1.20;99.90
40291;DHT22;26000;48.304;13.626;2023-04-07T04:02:59;1.20;99.90
40291;DHT22;26000;48.304;13.626;2023-04-07T04:05:25;1.00;99.90
40291;DHT22;26000;48.304;13.626;2023-04-07T04:07:51;1.20;99.90
40291;DHT22;26000;48.304;13.626;2023-04-07T04:10:18;1.10;99.90
40291;DHT22;26000;48.304;13.626;2023-04-07T04:12:43;1.10;99.90
40291;DHT22;26000;48.304;13.626;2023-04-07T04:15:09;1.20;99.90
40291;DHT22;26000;48.304;13.626;2023-04-07T04:17:35;1.30;99.90
40291;DHT22;26000;48.304;13.626;2023-04-07T04:20:01;1.20;99.90
40291;DHT22;26000;48.304;13.626;2023-04-07T04:22:27;1.20;99.90
40291;DHT22;26000;48.304;13.626;2023-04-07T04:24:52;1.20;99.90
40291;DHT22;26000;48.304;13.626;2023-04-07T04:27:18;1.20;99.90
40291;DHT22;26000;48.304;13.626;2023-04-07T04:29:44;1.10;99.90
40291;DHT22;26000;48.304;13.626;2023-04-07T04:32:10;1.10;99.90
40291;DHT22;26000;48.304;13.626;2023-04-07T04:34:35;1.10;99.90
40291;DHT22;26000;48.304;13.626;2023-04-07T04:37:01;1.10;99.90
40291;DHT22;26000;48.304;13.626;2023-04-07T04:39:26;1.10;99.90
40291;DHT22;26000;48.304;13.626;2023-04-07T04:41:52;1.10;99.90
40291;DHT22;26000;48.304;13.626;2023-04-07T04:44:18;1.10;99.90
40291;DHT22;26000;48.304;13.626;2023-04-07T04:46:43;1.10;99.90
40291;DHT22;26000;48.304;13.626;2023-04-07T04:49:09;1.10;99.90
40291;DHT22;26000;48.304;13.626;2023-04-07T04:51:34;1.10;99.90
40291;DHT22;26000;48.304;13.626;2023-04-07T04:54:00;1.10;99.90
40291;DHT22;26000;48.304;13.626;2023-04-07T04:56:28;1.00;99.90
40291;DHT22;26000;48.304;13.626;2023-04-07T04:58:53;1.00;99.90
40291;DHT22;26000;48.304;13.626;2023-04-07T05:01:19;1.00;99.90
40291;DHT22;26000;48.304;13.626;2023-04-07T05:03:44;1.00;99.90
40291;DHT22;26000;48.304;13.626;2023-04-07T05:06:10;1.10;99.90
40291;DHT22;26000;48.304;13.626;2023-04-07T05:08:36;1.10;99.90
40291;DHT22;26000;48.304;13.626;2023-04-07T05:11:02;1.20;99.90
40291;DHT22;26000;48.304;13.626;2023-04-07T05:13:27;1.20;99.90
40291;DHT22;26000;48.304;13.626;2023-04-07T05:15:55;1.30;99.90
40291;DHT22;26000;48.304;13.626;2023-04-07T05:18:20;1.30;99.90
40291;DHT22;26000;48.304;13.626;2023-04-07T05:20:47;1.50;99.90
40291;DHT22;26000;48.304;13.626;2023-04-07T05:23:13;1.40;99.90
40291;DHT22;26000;48.304;13.626;2023-04-07T05:25:39;1.50;99.90
40291;DHT22;26000;48.304;13.626;2023-04-07T05:28:05;1.70;99.90
40291;DHT22;26000;48.304;13.626;2023-04-07T05:30:31;2.00;99.90
40291;DHT22;26000;48.304;13.626;2023-04-07T05:32:56;2.40;99.90
40291;DHT22;26000;48.304;13.626;2023-04-07T05:35:22;2.90;99.90
40291;DHT22;26000;48.304;13.626;2023-04-07T05:37:48;3.30;99.90
40291;DHT22;26000;48.304;13.626;2023-04-07T05:40:14;3.60;99.90
40291;DHT22;26000;48.304;13.626;2023-04-07T05:42:40;3.70;99.90
40291;DHT22;26000;48.304;13.626;2023-04-07T05:45:06;3.60;99.90
40291;DHT22;26000;48.304;13.626;2023-04-07T05:47:32;3.60;99.90
40291;DHT22;26000;48.304;13.626;2023-04-07T05:49:57;3.70;99.90
40291;DHT22;26000;48.304;13.626;2023-04-07T05:52:23;3.90;99.90
40291;DHT22;26000;48.304;13.626;2023-04-07T05:54:49;4.10;99.90
40291;DHT22;26000;48.304;13.626;2023-04-07T05:57:14;4.30;99.90
40291;DHT22;26000;48.304;13.626;2023-04-07T05:59:40;4.50;99.90
40291;DHT22;26000;48.304;13.626;2023-04-07T06:02:06;4.80;99.90
40291;DHT22;26000;48.304;13.626;2023-04-07T06:04:32;5.10;99.90
40291;DHT22;26000;48.304;13.626;2023-04-07T06:07:00;5.40;99.90
40291;DHT22;26000;48.304;13.626;2023-04-07T06:09:25;5.70;99.90
40291;DHT22;26000;48.304;13.626;2023-04-07T06:11:51;5.90;99.90
40291;DHT22;26000;48.304;13.626;2023-04-07T06:14:17;6.10;99.90
40291;DHT22;26000;48.304;13.626;2023-04-07T06:16:43;6.30;99.90
40291;DHT22;26000;48.304;13.626;2023-04-07T06:19:08;6.60;99.90
40291;DHT22;26000;48.304;13.626;2023-04-07T06:21:34;6.80;99.90
40291;DHT22;26000;48.304;13.626;2023-04-07T06:24:00;7.10;99.90
40291;DHT22;26000;48.304;13.626;2023-04-07T06:26:26;7.40;99.90
40291;DHT22;26000;48.304;13.626;2023-04-07T06:28:52;7.60;99.90
40291;DHT22;26000;48.304;13.626;2023-04-07T06:31:17;7.80;99.90
40291;DHT22;26000;48.304;13.626;2023-04-07T06:33:44;8.00;99.90
40291;DHT22;26000;48.304;13.626;2023-04-07T06:36:10;8.10;99.90
40291;DHT22;26000;48.304;13.626;2023-04-07T06:38:37;8.30;99.60
40291;DHT22;26000;48.304;13.626;2023-04-07T06:41:02;8.50;99.20
40291;DHT22;26000;48.304;13.626;2023-04-07T06:43:29;8.80;98.90
40291;DHT22;26000;48.304;13.626;2023-04-07T06:45:55;9.00;98.30
40291;DHT22;26000;48.304;13.626;2023-04-07T06:48:21;9.20;97.60
40291;DHT22;26000;48.304;13.626;2023-04-07T06:50:48;9.40;96.80
40291;DHT22;26000;48.304;13.626;2023-04-07T06:53:14;9.70;96.20
40291;DHT22;26000;48.304;13.626;2023-04-07T06:55:40;9.90;95.80
40291;DHT22;26000;48.304;13.626;2023-04-07T06:58:06;10.10;94.90
40291;DHT22;26000;48.304;13.626;2023-04-07T07:00:31;10.20;95.20
40291;DHT22;26000;48.304;13.626;2023-04-07T07:02:57;10.40;93.80
40291;DHT22;26000;48.304;13.626;2023-04-07T07:05:22;10.60;94.00
40291;DHT22;26000;48.304;13.626;2023-04-07T07:07:48;10.80;94.30
40291;DHT22;26000;48.304;13.626;2023-04-07T07:10:14;10.90;93.50
40291;DHT22;26000;48.304;13.626;2023-04-07T07:12:40;11.00;93.60
40291;DHT22;26000;48.304;13.626;2023-04-07T07:15:06;11.10;93.50
40291;DHT22;26000;48.304;13.626;2023-04-07T07:17:32;10.90;92.10
40291;DHT22;26000;48.304;13.626;2023-04-07T07:19:58;10.90;92.70
40291;DHT22;26000;48.304;13.626;2023-04-07T07:22:24;11.10;92.70
40291;DHT22;26000;48.304;13.626;2023-04-07T07:24:50;11.30;92.10
40291;DHT22;26000;48.304;13.626;2023-04-07T07:27:15;11.60;92.00
40291;DHT22;26000;48.304;13.626;2023-04-07T07:29:41;11.80;91.10
40291;DHT22;26000;48.304;13.626;2023-04-07T07:32:07;12.10;90.20
40291;DHT22;26000;48.304;13.626;2023-04-07T07:34:32;12.20;89.80
40291;DHT22;26000;48.304;13.626;2023-04-07T07:36:58;12.40;88.50
40291;DHT22;26000;48.304;13.626;2023-04-07T07:39:24;12.70;86.50
40291;DHT22;26000;48.304;13.626;2023-04-07T07:41:50;12.70;87.00
40291;DHT22;26000;48.304;13.626;2023-04-07T07:44:16;12.90;86.90
40291;DHT22;26000;48.304;13.626;2023-04-07T07:46:44;13.10;85.80
40291;DHT22;26000;48.304;13.626;2023-04-07T07:49:10;13.10;84.30
40291;DHT22;26000;48.304;13.626;2023-04-07T07:51:36;13.20;84.30
40291;DHT22;26000;48.304;13.626;2023-04-07T07:54:02;13.40;83.30
40291;DHT22;26000;48.304;13.626;2023-04-07T07:56:27;13.50;84.00
40291;DHT22;26000;48.304;13.626;2023-04-07T07:58:53;13.60;82.70
40291;DHT22;26000;48.304;13.626;2023-04-07T08:01:19;13.70;81.80
40291;DHT22;26000;48.304;13.626;2023-04-07T08:03:44;13.80;80.80
40291;DHT22;26000;48.304;13.626;2023-04-07T08:06:10;13.90;82.80
40291;DHT22;26000;48.304;13.626;2023-04-07T08:08:36;14.00;81.00
40291;DHT22;26000;48.304;13.626;2023-04-07T08:11:01;14.00;80.50
40291;DHT22;26000;48.304;13.626;2023-04-07T08:13:27;14.30;81.20
40291;DHT22;26000;48.304;13.626;2023-04-07T08:15:53;14.40;80.10
40291;DHT22;26000;48.304;13.626;2023-04-07T08:18:19;14.40;78.90
40291;DHT22;26000;48.304;13.626;2023-04-07T08:20:45;14.40;80.20
40291;DHT22;26000;48.304;13.626;2023-04-07T08:23:11;14.30;80.80
40291;DHT22;26000;48.304;13.626;2023-04-07T08:25:37;14.10;80.50
40291;DHT22;26000;48.304;13.626;2023-04-07T08:28:05;14.10;81.60
40291;DHT22;26000;48.304;13.626;2023-04-07T08:30:30;14.40;81.00
40291;DHT22;26000;48.304;13.626;2023-04-07T08:32:56;14.40;81.10
40291;DHT22;26000;48.304;13.626;2023-04-07T08:35:22;14.60;81.70
40291;DHT22;26000;48.304;13.626;2023-04-07T08:37:48;14.80;81.60
40291;DHT22;26000;48.304;13.626;2023-04-07T08:40:14;15.00;80.80
40291;DHT22;26000;48.304;13.626;2023-04-07T08:42:42;15.00;80.60
40291;DHT22;26000;48.304;13.626;2023-04-07T08:45:12;14.80;80.60
40291;DHT22;26000;48.304;13.626;2023-04-07T08:47:39;14.90;82.10
40291;DHT22;26000;48.304;13.626;2023-04-07T08:50:07;15.00;80.80
40291;DHT22;26000;48.304;13.626;2023-04-07T08:55:05;15.20;83.90
40291;DHT22;26000;48.304;13.626;2023-04-07T08:57:33;15.40;81.80
40291;DHT22;26000;48.304;13.626;2023-04-07T09:00:00;15.40;80.30
40291;DHT22;26000;48.304;13.626;2023-04-07T09:02:36;15.60;79.60
40291;DHT22;26000;48.304;13.626;2023-04-07T09:05:03;15.70;81.10
40291;DHT22;26000;48.304;13.626;2023-04-07T09:07:33;15.80;83.10
40291;DHT22;26000;48.304;13.626;2023-04-07T09:09:59;15.70;81.50
40291;DHT22;26000;48.304;13.626;2023-04-07T09:12:28;15.30;82.00
40291;DHT22;26000;48.304;13.626;2023-04-07T09:14:54;15.10;82.80
40291;DHT22;26000;48.304;13.626;2023-04-07T09:17:20;15.20;82.20
40291;DHT22;26000;48.304;13.626;2023-04-07T09:19:47;15.30;82.10
40291;DHT22;26000;48.304;13.626;2023-04-07T09:22:13;15.60;84.90
40291;DHT22;26000;48.304;13.626;2023-04-07T09:24:40;15.80;84.40
40291;DHT22;26000;48.304;13.626;2023-04-07T09:27:17;16.20;83.70
40291;DHT22;26000;48.304;13.626;2023-04-07T09:29:45;16.30;81.00
40291;DHT22;26000;48.304;13.626;2023-04-07T09:32:12;16.50;82.90
40291;DHT22;26000;48.304;13.626;2023-04-07T09:34:46;16.70;81.30
40291;DHT22;26000;48.304;13.626;2023-04-07T09:37:21;16.50;82.50
40291;DHT22;26000;48.304;13.626;2023-04-07T09:39:51;16.60;84.80
40291;DHT22;26000;48.304;13.626;2023-04-07T09:42:19;16.80;85.00
40291;DHT22;26000;48.304;13.626;2023-04-07T09:44:44;17.00;80.90
40291;DHT22;26000;48.304;13.626;2023-04-07T09:47:10;17.00;79.10
40291;DHT22;26000;48.304;13.626;2023-04-07T09:49:53;17.00;79.40
40291;DHT22;26000;48.304;13.626;2023-04-07T09:52:24;17.00;81.90
40291;DHT22;26000;48.304;13.626;2023-04-07T09:54:50;17.00;78.30
40291;DHT22;26000;48.304;13.626;2023-04-07T09:57:17;16.90;78.40
40291;DHT22;26000;48.304;13.626;2023-04-07T09:59:43;16.90;79.40
40291;DHT22;26000;48.304;13.626;2023-04-07T10:02:10;16.20;79.10
40291;DHT22;26000;48.304;13.626;2023-04-07T10:04:37;16.50;80.20
40291;DHT22;26000;48.304;13.626;2023-04-07T10:07:04;16.40;76.90
40291;DHT22;26000;48.304;13.626;2023-04-07T10:09:30;16.40;78.80
40291;DHT22;26000;48.304;13.626;2023-04-07T10:11:57;16.60;79.20
40291;DHT22;26000;48.304;13.626;2023-04-07T10:14:29;16.70;80.10
40291;DHT22;26000;48.304;13.626;2023-04-07T10:16:55;16.80;79.60
40291;DHT22;26000;48.304;13.626;2023-04-07T10:19:22;16.80;78.90
40291;DHT22;26000;48.304;13.626;2023-04-07T10:21:51;16.90;79.70
40291;DHT22;26000;48.304;13.626;2023-04-07T10:26:58;17.00;77.10
40291;DHT22;26000;48.304;13.626;2023-04-07T10:29:31;17.00;80.60
40291;DHT22;26000;48.304;13.626;2023-04-07T10:32:00;17.10;77.60
40291;DHT22;26000;48.304;13.626;2023-04-07T10:37:15;16.90;76.90
40291;DHT22;26000;48.304;13.626;2023-04-07T10:39:44;17.00;76.00
40291;DHT22;26000;48.304;13.626;2023-04-07T10:45:04;17.30;74.00
40291;DHT22;26000;48.304;13.626;2023-04-07T10:47:30;17.20;74.60
40291;DHT22;26000;48.304;13.626;2023-04-07T10:52:41;17.30;77.90
40291;DHT22;26000;48.304;13.626;2023-04-07T10:55:37;17.40;73.50
40291;DHT22;26000;48.304;13.626;2023-04-07T10:58:25;17.50;74.00
40291;DHT22;26000;48.304;13.626;2023-04-07T11:03:30;17.30;74.30
40291;DHT22;26000;48.304;13.626;2023-04-07T11:06:05;17.30;78.40
40291;DHT22;26000;48.304;13.626;2023-04-07T11:08:46;17.20;76.00
40291;DHT22;26000;48.304;13.626;2023-04-07T11:11:21;17.00;70.20
40291;DHT22;26000;48.304;13.626;2023-04-07T11:13:59;16.90;74.20
40291;DHT22;26000;48.304;13.626;2023-04-07T11:16:35;16.70;75.90
40291;DHT22;26000;48.304;13.626;2023-04-07T11:19:01;16.60;74.80
40291;DHT22;26000;48.304;13.626;2023-04-07T11:21:26;16.50;74.10
40291;DHT22;26000;48.304;13.626;2023-04-07T11:23:52;16.50;74.10
40291;DHT22;26000;48.304;13.626;2023-04-07T11:26:18;16.40;73.40
40291;DHT22;26000;48.304;13.626;2023-04-07T11:28:50;16.50;78.10
40291;DHT22;26000;48.304;13.626;2023-04-07T11:31:21;16.50;73.50
40291;DHT22;26000;48.304;13.626;2023-04-07T11:33:57;16.50;71.90
40291;DHT22;26000;48.304;13.626;2023-04-07T11:38:56;16.20;73.50
40291;DHT22;26000;48.304;13.626;2023-04-07T11:41:24;16.00;73.30
40291;DHT22;26000;48.304;13.626;2023-04-07T11:44:03;16.10;74.00
40291;DHT22;26000;48.304;13.626;2023-04-07T11:46:29;16.00;72.90
40291;DHT22;26000;48.304;13.626;2023-04-07T11:49:11;15.80;71.80
40291;DHT22;26000;48.304;13.626;2023-04-07T11:51:37;15.50;70.00
40291;DHT22;26000;48.304;13.626;2023-04-07T11:54:02;15.60;72.60
40291;DHT22;26000;48.304;13.626;2023-04-07T11:56:28;15.50;70.10
40291;DHT22;26000;48.304;13.626;2023-04-07T11:58:54;15.40;70.30
40291;DHT22;26000;48.304;13.626;2023-04-07T12:01:21;15.60;70.80
40291;DHT22;26000;48.304;13.626;2023-04-07T12:04:02;15.50;72.50
40291;DHT22;26000;48.304;13.626;2023-04-07T12:06:33;15.40;69.70
40291;DHT22;26000;48.304;13.626;2023-04-07T12:09:01;15.30;69.20
40291;DHT22;26000;48.304;13.626;2023-04-07T12:11:27;15.10;69.10
40291;DHT22;26000;48.304;13.626;2023-04-07T12:13:53;15.00;69.00
40291;DHT22;26000;48.304;13.626;2023-04-07T12:16:22;14.90;69.30
40291;DHT22;26000;48.304;13.626;2023-04-07T12:18:48;15.00;69.80
40291;DHT22;26000;48.304;13.626;2023-04-07T12:21:16;14.90;69.70
40291;DHT22;26000;48.304;13.626;2023-04-07T12:23:41;15.00;74.00
40291;DHT22;26000;48.304;13.626;2023-04-07T12:26:07;15.10;73.70
40291;DHT22;26000;48.304;13.626;2023-04-07T12:28:33;15.10;73.20
40291;DHT22;26000;48.304;13.626;2023-04-07T12:30:59;15.10;73.00
40291;DHT22;26000;48.304;13.626;2023-04-07T12:33:24;15.20;74.50
40291;DHT22;26000;48.304;13.626;2023-04-07T12:35:50;15.20;72.10
40291;DHT22;26000;48.304;13.626;2023-04-07T12:38:16;15.10;72.00
40291;DHT22;26000;48.304;13.626;2023-04-07T12:40:42;15.00;73.80
40291;DHT22;26000;48.304;13.626;2023-04-07T12:43:08;15.10;76.90
40291;DHT22;26000;48.304;13.626;2023-04-07T12:45:33;15.00;73.40
40291;DHT22;26000;48.304;13.626;2023-04-07T12:47:59;14.90;73.20
40291;DHT22;26000;48.304;13.626;2023-04-07T12:50:25;14.90;71.40
40291;DHT22;26000;48.304;13.626;2023-04-07T12:52:51;14.70;73.00
40291;DHT22;26000;48.304;13.626;2023-04-07T12:55:18;14.50;72.10
40291;DHT22;26000;48.304;13.626;2023-04-07T12:57:43;14.50;73.20
40291;DHT22;26000;48.304;13.626;2023-04-07T13:00:09;14.50;76.10
40291;DHT22;26000;48.304;13.626;2023-04-07T13:02:35;14.60;75.70
40291;DHT22;26000;48.304;13.626;2023-04-07T13:05:02;14.60;77.50
40291;DHT22;26000;48.304;13.626;2023-04-07T13:07:28;14.60;74.90
40291;DHT22;26000;48.304;13.626;2023-04-07T13:09:54;14.60;73.60
40291;DHT22;26000;48.304;13.626;2023-04-07T13:12:19;14.60;74.30
40291;DHT22;26000;48.304;13.626;2023-04-07T13:14:46;14.60;73.20
40291;DHT22;26000;48.304;13.626;2023-04-07T13:17:12;14.60;72.50
40291;DHT22;26000;48.304;13.626;2023-04-07T13:19:37;14.40;73.40
40291;DHT22;26000;48.304;13.626;2023-04-07T13:22:04;14.30;74.50
40291;DHT22;26000;48.304;13.626;2023-04-07T13:24:30;14.20;75.30
40291;DHT22;26000;48.304;13.626;2023-04-07T13:26:55;14.30;75.10
40291;DHT22;26000;48.304;13.626;2023-04-07T13:29:22;14.40;77.00
40291;DHT22;26000;48.304;13.626;2023-04-07T13:31:48;14.30;74.50
40291;DHT22;26000;48.304;13.626;2023-04-07T13:34:14;14.40;73.80
40291;DHT22;26000;48.304;13.626;2023-04-07T13:36:40;14.20;73.50
40291;DHT22;26000;48.304;13.626;2023-04-07T13:39:06;14.20;74.30
40291;DHT22;26000;48.304;13.626;2023-04-07T13:41:32;14.30;73.80
40291;DHT22;26000;48.304;13.626;2023-04-07T13:43:58;14.30;74.50
40291;DHT22;26000;48.304;13.626;2023-04-07T13:46:25;14.30;72.60
40291;DHT22;26000;48.304;13.626;2023-04-07T13:48:51;14.30;72.80
40291;DHT22;26000;48.304;13.626;2023-04-07T13:51:17;14.20;71.90
40291;DHT22;26000;48.304;13.626;2023-04-07T13:53:43;14.30;72.90
40291;DHT22;26000;48.304;13.626;2023-04-07T13:56:08;14.30;76.80
40291;DHT22;26000;48.304;13.626;2023-04-07T13:58:34;14.40;74.80
40291;DHT22;26000;48.304;13.626;2023-04-07T14:01:01;14.60;75.70
40291;DHT22;26000;48.304;13.626;2023-04-07T14:03:27;14.60;74.00
40291;DHT22;26000;48.304;13.626;2023-04-07T14:05:53;14.40;73.70
40291;DHT22;26000;48.304;13.626;2023-04-07T14:08:20;14.30;74.40
40291;DHT22;26000;48.304;13.626;2023-04-07T14:10:48;14.30;74.50
40291;DHT22;26000;48.304;13.626;2023-04-07T14:13:14;14.20;74.20
40291;DHT22;26000;48.304;13.626;2023-04-07T14:15:40;14.20;75.40
40291;DHT22;26000;48.304;13.626;2023-04-07T14:18:05;14.20;74.70
40291;DHT22;26000;48.304;13.626;2023-04-07T14:20:32;14.10;76.80
40291;DHT22;26000;48.304;13.626;2023-04-07T14:22:57;14.10;74.90
40291;DHT22;26000;48.304;13.626;2023-04-07T14:25:23;14.00;74.40
40291;DHT22;26000;48.304;13.626;2023-04-07T14:27:50;14.00;75.40
40291;DHT22;26000;48.304;13.626;2023-04-07T14:30:16;14.00;74.30
40291;DHT22;26000;48.304;13.626;2023-04-07T14:32:42;13.90;74.50
40291;DHT22;26000;48.304;13.626;2023-04-07T14:35:08;13.90;74.60
40291;DHT22;26000;48.304;13.626;2023-04-07T14:37:34;14.00;76.20
40291;DHT22;26000;48.304;13.626;2023-04-07T14:40:01;13.90;75.40
40291;DHT22;26000;48.304;13.626;2023-04-07T14:42:27;13.90;74.30
40291;DHT22;26000;48.304;13.626;2023-04-07T14:44:54;13.90;74.70
40291;DHT22;26000;48.304;13.626;2023-04-07T14:47:20;13.90;75.10
40291;DHT22;26000;48.304;13.626;2023-04-07T14:49:46;13.90;76.30
40291;DHT22;26000;48.304;13.626;2023-04-07T14:52:11;13.90;74.30
40291;DHT22;26000;48.304;13.626;2023-04-07T14:54:38;13.90;74.60
40291;DHT22;26000;48.304;13.626;2023-04-07T14:57:04;13.90;73.00
40291;DHT22;26000;48.304;13.626;2023-04-07T14:59:30;13.80;73.00
40291;DHT22;26000;48.304;13.626;2023-04-07T15:01:56;13.70;72.90
40291;DHT22;26000;48.304;13.626;2023-04-07T15:04:21;13.70;73.10
40291;DHT22;26000;48.304;13.626;2023-04-07T15:06:47;13.60;73.20
40291;DHT22;26000;48.304;13.626;2023-04-07T15:09:12;13.60;73.50
40291;DHT22;26000;48.304;13.626;2023-04-07T15:11:38;13.50;73.90
40291;DHT22;26000;48.304;13.626;2023-04-07T15:14:03;13.50;74.40
40291;DHT22;26000;48.304;13.626;2023-04-07T15:16:31;13.50;74.20
40291;DHT22;26000;48.304;13.626;2023-04-07T15:18:58;13.50;75.40
40291;DHT22;26000;48.304;13.626;2023-04-07T15:21:24;13.50;73.80
40291;DHT22;26000;48.304;13.626;2023-04-07T15:23:50;13.50;75.70
40291;DHT22;26000;48.304;13.626;2023-04-07T15:26:16;13.50;75.60
40291;DHT22;26000;48.304;13.626;2023-04-07T15:28:42;13.40;74.60
40291;DHT22;26000;48.304;13.626;2023-04-07T15:31:07;13.50;74.50
40291;DHT22;26000;48.304;13.626;2023-04-07T15:33:38;13.50;75.20
40291;DHT22;26000;48.304;13.626;2023-04-07T15:36:04;13.50;75.00
40291;DHT22;26000;48.304;13.626;2023-04-07T15:38:30;13.50;74.60
40291;DHT22;26000;48.304;13.626;2023-04-07T15:40:56;13.40;75.00
40291;DHT22;26000;48.304;13.626;2023-04-07T15:43:22;13.30;75.30
40291;DHT22;26000;48.304;13.626;2023-04-07T15:45:47;13.30;74.30
40291;DHT22;26000;48.304;13.626;2023-04-07T15:48:13;13.30;74.00